KCDH/CDH METAR and TAF weather

Enter ICAO airport designator
Station Type Date Time Source
KCDH METAR 2018/10/22 16:35 UTC NOAA

KCDH 221635Z AUTO VRB03KT 9SM 17/03 A3027 RMK AO2


Station Type Date Time Source
KCDH Decoded METAR 2018/10/22 16:35 UTC NOAA

Camden / Harrell Field, AR, United States (KCDH) 33-37N 092-46W
Oct 22, 2018 - 12:35 PM EDT / 2018.10.22 1635 UTC
Wind: Variable at 3 MPH (3 KT):0
Visibility: 9 mile(s):0
Temperature: 62 F (17 C)
Dew Point: 37 F (3 C)
Relative Humidity: 39%
Pressure (altimeter): 30.27 in. Hg (1025 hPa)
ob: KCDH 221635Z AUTO VRB03KT 9SM 17/03 A3027 RMK AO2
cycle: 16

Station Type Date Time Source
KCDH TAF UTC NOAA

Error!


Example: see airport list